Time;durP1;ratioP1;P1;durP2;ratioP2;P2;SDS_P1;SDS_P2;PMS_P1;PMS_P2;Temp;Humidity;BMP_temperature;BMP_pressure;BME280_temperature;BME280_humidity;BME280_pressure;Samples;Min_cycle;Max_cycle;Signal;HPM_P1;HPM_P2
2022/03/12 00:01:08;;;;;;;8.82;5.50;;;11.10;45.80;;;;;;5163366;22;20467;-66
2022/03/12 00:03:10;;;;;;;8.45;5.20;;;11.10;45.70;;;;;;5165396;22;20049;-66
2022/03/12 00:05:11;;;;;;;11.18;5.68;;;11.10;45.80;;;;;;5164594;22;20081;-67
2022/03/12 00:07:12;;;;;;;8.68;5.82;;;11.10;45.50;;;;;;5164883;22;20103;-65
2022/03/12 00:09:14;;;;;;;9.73;5.60;;;11.10;45.80;;;;;;5164595;22;20091;-65
2022/03/12 00:11:17;;;;;;;10.77;5.35;;;11.10;47.50;;;;;;5164112;22;20038;-65
2022/03/12 00:13:21;;;;;;;10.02;5.10;;;11.00;45.60;;;;;;5164833;22;20408;-66
2022/03/12 00:15:22;;;;;;;9.68;5.55;;;11.10;46.60;;;;;;5163200;22;20018;-65
2022/03/12 00:17:25;;;;;;;9.07;5.45;;;11.10;46.80;;;;;;5164500;22;20369;-65
2022/03/12 00:19:25;;;;;;;8.50;5.38;;;11.10;45.80;;;;;;5164718;22;20019;-65
2022/03/12 00:21:28;;;;;;;10.68;5.82;;;11.10;45.90;;;;;;5163903;22;20008;-65
2022/03/12 00:23:29;;;;;;;14.30;5.97;;;11.00;45.60;;;;;;5164594;22;20368;-65
2022/03/12 00:25:31;;;;;;;8.68;5.30;;;11.00;45.90;;;;;;5163642;22;20004;-65
2022/03/12 00:27:32;;;;;;;7.68;5.13;;;11.10;47.60;;;;;;5164599;22;20011;-65
2022/03/12 00:29:32;;;;;;;9.90;5.50;;;11.00;46.80;;;;;;5164681;22;20444;-66
2022/03/12 00:31:33;;;;;;;10.52;5.65;;;11.00;46.10;;;;;;5163545;22;20318;-65
2022/03/12 00:33:34;;;;;;;9.85;5.95;;;11.00;45.80;;;;;;5163984;22;20082;-67
2022/03/12 00:35:34;;;;;;;8.18;5.13;;;11.00;46.90;;;;;;5164000;22;20436;-65
2022/03/12 00:37:35;;;;;;;14.18;6.22;;;11.00;47.80;;;;;;5165566;22;20068;-66
2022/03/12 00:39:35;;;;;;;9.98;5.72;;;11.00;46.90;;;;;;5165007;22;20372;-65
2022/03/12 00:41:38;;;;;;;9.82;5.60;;;11.00;46.60;;;;;;5164550;22;20027;-66
2022/03/12 00:43:38;;;;;;;11.52;5.47;;;10.90;46.30;;;;;;5164979;22;20008;-66
2022/03/12 00:45:39;;;;;;;10.55;6.25;;;10.90;46.30;;;;;;5164215;22;20004;-66
2022/03/12 00:47:40;;;;;;;9.70;5.78;;;10.90;46.80;;;;;;5164150;22;20012;-66
2022/03/12 00:49:40;;;;;;;9.07;5.07;;;11.00;48.60;;;;;;5164092;22;20016;-65
2022/03/12 00:51:41;;;;;;;10.45;5.60;;;11.00;47.30;;;;;;5163955;22;20020;-65
2022/03/12 00:53:42;;;;;;;15.07;5.55;;;10.90;48.00;;;;;;5164727;22;20032;-65
2022/03/12 00:55:43;;;;;;;11.73;5.65;;;10.90;46.80;;;;;;5164290;22;20463;-66
2022/03/12 00:57:43;;;;;;;11.93;5.72;;;10.90;48.10;;;;;;5164879;22;20019;-65
2022/03/12 00:59:45;;;;;;;10.70;5.28;;;10.90;48.30;;;;;;5164096;22;20084;-65
2022/03/12 01:01:45;;;;;;;10.65;6.00;;;10.90;47.20;;;;;;5163063;22;20407;-65
2022/03/12 01:03:46;;;;;;;8.43;5.75;;;10.90;48.40;;;;;;5164012;22;20016;-65
2022/03/12 01:05:49;;;;;;;13.05;5.95;;;10.90;47.20;;;;;;5164047;22;20023;-65
2022/03/12 01:07:50;;;;;;;13.73;6.43;;;10.90;47.50;;;;;;5164399;22;20012;-65
2022/03/12 01:09:50;;;;;;;8.40;5.60;;;10.90;47.40;;;;;;5163925;22;20423;-66
2022/03/12 01:11:51;;;;;;;12.32;6.03;;;10.80;47.60;;;;;;5163095;22;20091;-65
2022/03/12 01:13:52;;;;;;;15.60;6.00;;;10.80;49.50;;;;;;5164652;22;20381;-65
2022/03/12 01:15:55;;;;;;;11.18;6.43;;;10.80;48.40;;;;;;5163620;22;20332;-65
2022/03/12 01:17:56;;;;;;;9.73;5.60;;;10.80;47.50;;;;;;5163980;22;20008;-66
2022/03/12 01:19:56;;;;;;;11.02;5.95;;;10.80;47.30;;;;;;5164867;22;20008;-67
2022/03/12 01:21:57;;;;;;;11.20;5.63;;;10.80;48.90;;;;;;5162977;22;20027;-65
2022/03/12 01:23:58;;;;;;;9.25;5.82;;;10.80;47.50;;;;;;5164038;22;20008;-65
2022/03/12 01:25:58;;;;;;;8.82;5.63;;;10.80;47.90;;;;;;5163718;22;20417;-65
2022/03/12 01:27:59;;;;;;;10.07;5.78;;;10.80;48.60;;;;;;5164393;22;20012;-65
2022/03/12 01:30:00;;;;;;;11.98;6.50;;;10.80;49.00;;;;;;5164279;22;20008;-65
2022/03/12 01:32:01;;;;;;;10.05;5.90;;;10.80;49.50;;;;;;5163118;22;20016;-65
2022/03/12 01:34:03;;;;;;;10.63;5.72;;;10.80;50.00;;;;;;5164314;22;20071;-65
2022/03/12 01:36:04;;;;;;;11.70;6.60;;;10.80;48.60;;;;;;5163197;22;20008;-65
2022/03/12 01:38:05;;;;;;;9.80;5.88;;;10.80;49.60;;;;;;5163659;22;20328;-66
2022/03/12 01:40:07;;;;;;;12.13;6.20;;;10.70;49.70;;;;;;5164706;22;20059;-66
2022/03/12 01:42:09;;;;;;;12.00;6.20;;;10.80;49.30;;;;;;5164639;22;20035;-65
2022/03/12 01:44:12;;;;;;;8.93;5.65;;;10.80;49.40;;;;;;5165015;22;20011;-65
2022/03/12 01:46:12;;;;;;;11.18;7.13;;;10.80;48.90;;;;;;5163419;22;20010;-65
2022/03/12 01:48:13;;;;;;;9.02;5.97;;;10.80;50.00;;;;;;5164557;22;20009;-65
2022/03/12 01:50:19;;;;;;;14.55;7.00;;;10.80;49.20;;;;;;5162647;22;20020;-66
2022/03/12 01:52:21;;;;;;;12.20;6.15;;;10.70;48.00;;;;;;5161866;23;20429;-65
2022/03/12 01:54:24;;;;;;;12.73;5.65;;;10.70;48.20;;;;;;5164042;22;20083;-65
2022/03/12 01:56:27;;;;;;;9.30;6.25;;;10.70;49.80;;;;;;5162471;22;20016;-66
2022/03/12 01:58:28;;;;;;;10.77;6.53;;;10.70;49.30;;;;;;5164272;22;20505;-65
2022/03/12 02:00:48;;;;;;;14.20;6.15;;;10.70;48.70;;;;;;5164552;22;20032;-65
2022/03/12 02:02:53;;;;;;;14.98;6.22;;;10.70;48.60;;;;;;5165351;22;20087;-65
2022/03/12 02:04:54;;;;;;;11.13;6.63;;;10.70;48.60;;;;;;5165092;22;20011;-65
2022/03/12 02:06:58;;;;;;;12.00;6.10;;;10.60;48.60;;;;;;5163862;22;20016;-65
2022/03/12 02:08:58;;;;;;;12.73;5.88;;;10.60;49.70;;;;;;5165888;22;20055;-66
2022/03/12 02:10:59;;;;;;;9.75;6.10;;;10.60;48.60;;;;;;5164905;22;20004;-65
2022/03/12 02:13:00;;;;;;;11.10;6.13;;;10.60;49.00;;;;;;5165102;22;20008;-65
2022/03/12 02:15:01;;;;;;;9.43;5.88;;;10.60;49.20;;;;;;5165769;22;20405;-65
2022/03/12 02:17:07;;;;;;;12.63;6.47;;;10.60;50.30;;;;;;5164630;22;20384;-65
2022/03/12 02:19:08;;;;;;;10.85;6.32;;;10.60;50.70;;;;;;5164998;22;20039;-65
2022/03/12 02:21:08;;;;;;;10.30;5.82;;;10.60;49.10;;;;;;5165818;22;20004;-65
2022/03/12 02:23:10;;;;;;;12.05;6.20;;;10.60;49.80;;;;;;5166589;22;20004;-65
2022/03/12 02:25:12;;;;;;;15.23;6.25;;;10.60;50.20;;;;;;5164404;22;20062;-66
2022/03/12 02:27:13;;;;;;;12.90;6.68;;;10.60;49.90;;;;;;5166063;22;20008;-65
2022/03/12 02:29:19;;;;;;;10.50;6.15;;;10.60;49.20;;;;;;5166283;22;20328;-65
2022/03/12 02:31:24;;;;;;;9.43;5.80;;;10.60;50.50;;;;;;5164656;22;20012;-65
2022/03/12 02:33:28;;;;;;;11.05;6.60;;;10.60;49.80;;;;;;5165471;22;20507;-65
2022/03/12 02:35:35;;;;;;;10.52;6.35;;;10.60;49.60;;;;;;5164188;22;21108;-65
2022/03/12 02:37:40;;;;;;;10.50;5.78;;;10.50;49.90;;;;;;5165161;22;20012;-66
2022/03/12 02:39:40;;;;;;;10.73;6.50;;;10.50;49.70;;;;;;5166457;22;20058;-66
2022/03/12 02:41:41;;;;;;;10.90;6.68;;;10.50;50.00;;;;;;5165271;22;20020;-65
2022/03/12 02:43:44;;;;;;;13.50;6.78;;;10.40;50.20;;;;;;5166232;22;20009;-65
2022/03/12 02:45:50;;;;;;;8.95;5.93;;;10.40;51.00;;;;;;5163361;22;20058;-65
2022/03/12 02:47:51;;;;;;;10.77;5.90;;;10.50;51.50;;;;;;5164641;22;20008;-65
2022/03/12 02:49:59;;;;;;;10.43;6.03;;;10.50;50.50;;;;;;5162688;23;20008;-65
2022/03/12 02:52:00;;;;;;;12.10;6.95;;;10.50;50.40;;;;;;5163447;22;20058;-66
2022/03/12 02:54:00;;;;;;;13.68;7.35;;;10.40;50.40;;;;;;5164929;22;20420;-66
2022/03/12 02:56:01;;;;;;;13.27;6.60;;;10.40;50.90;;;;;;5164229;22;20018;-65
2022/03/12 02:58:09;;;;;;;9.63;6.10;;;10.40;51.00;;;;;;5164793;22;20012;-65
2022/03/12 03:00:11;;;;;;;13.50;7.32;;;10.40;50.90;;;;;;5163007;22;20019;-66
2022/03/12 03:02:12;;;;;;;11.25;6.68;;;10.40;51.20;;;;;;5165164;22;20336;-65
2022/03/12 03:04:13;;;;;;;13.10;6.07;;;10.30;51.80;;;;;;5165508;22;20452;-65
2022/03/12 03:06:15;;;;;;;13.68;6.50;;;10.30;52.40;;;;;;5164456;22;20015;-65
2022/03/12 03:08:21;;;;;;;13.73;6.70;;;10.30;53.50;;;;;;5149350;22;20020;-65
2022/03/12 03:10:35;;;;;;;9.02;5.72;;;10.30;53.60;;;;;;5162392;22;20013;-65
2022/03/12 03:12:35;;;;;;;13.88;7.35;;;10.30;54.90;;;;;;5164220;22;20498;-65
2022/03/12 03:14:44;;;;;;;16.02;7.05;;;10.30;53.90;;;;;;5164299;22;20083;-66
2022/03/12 03:16:50;;;;;;;9.75;6.07;;;10.30;53.70;;;;;;5164206;22;20039;-65
2022/03/12 03:18:53;;;;;;;11.07;6.30;;;10.30;54.50;;;;;;5164349;22;20006;-65
2022/03/12 03:20:55;;;;;;;14.10;6.45;;;10.30;55.00;;;;;;5163491;22;20004;-65
2022/03/12 03:22:56;;;;;;;11.57;6.38;;;10.30;54.80;;;;;;5164317;22;20019;-66
2022/03/12 03:24:57;;;;;;;9.77;6.28;;;10.30;54.80;;;;;;5164960;22;20428;-65
2022/03/12 03:26:59;;;;;;;13.07;6.95;;;10.30;55.90;;;;;;5163529;22;20046;-66
2022/03/12 03:29:00;;;;;;;11.80;7.22;;;10.30;55.30;;;;;;5164205;22;20028;-65
2022/03/12 03:31:04;;;;;;;14.00;6.40;;;10.30;55.70;;;;;;5163796;22;20000;-65
2022/03/12 03:33:10;;;;;;;10.43;6.43;;;10.30;55.60;;;;;;5165248;22;20084;-65
2022/03/12 03:35:11;;;;;;;11.80;6.60;;;10.30;54.50;;;;;;5163459;22;20017;-66
2022/03/12 03:37:12;;;;;;;11.05;6.57;;;10.30;54.60;;;;;;5164200;22;20012;-66
2022/03/12 03:39:13;;;;;;;10.95;6.78;;;10.30;54.50;;;;;;5165386;22;20051;-65
2022/03/12 03:41:14;;;;;;;12.18;6.72;;;10.30;54.90;;;;;;5164163;22;20504;-65
2022/03/12 03:43:19;;;;;;;13.50;7.13;;;10.30;54.80;;;;;;5165784;22;20008;-65
2022/03/12 03:45:24;;;;;;;13.27;6.80;;;10.20;54.10;;;;;;5163794;22;20012;-65
2022/03/12 03:47:25;;;;;;;12.90;6.40;;;10.20;53.90;;;;;;5163483;22;20012;-65
2022/03/12 03:49:26;;;;;;;12.80;7.28;;;10.20;55.10;;;;;;5164381;22;20012;-65
2022/03/12 03:51:26;;;;;;;11.23;6.65;;;10.20;55.50;;;;;;5164724;22;20024;-65
2022/03/12 03:53:27;;;;;;;13.23;7.25;;;10.30;54.50;;;;;;5165880;22;20004;-65
2022/03/12 03:55:28;;;;;;;10.15;6.63;;;10.30;57.30;;;;;;5164267;22;21203;-65
2022/03/12 03:57:28;;;;;;;11.80;6.95;;;10.30;56.50;;;;;;5164963;22;20008;-66
2022/03/12 03:59:29;;;;;;;11.85;6.68;;;10.30;54.80;;;;;;5165477;22;20005;-66
2022/03/12 04:01:30;;;;;;;11.77;6.68;;;10.20;54.50;;;;;;5164036;22;20029;-65
2022/03/12 04:03:33;;;;;;;10.98;6.82;;;10.30;55.40;;;;;;5164716;22;20028;-65
2022/03/12 04:05:37;;;;;;;12.88;7.15;;;10.30;57.10;;;;;;5163892;22;20119;-65
2022/03/12 04:07:37;;;;;;;11.48;6.72;;;10.30;56.30;;;;;;5164905;22;20035;-66
2022/03/12 04:09:38;;;;;;;11.18;7.03;;;10.30;57.40;;;;;;5165985;22;20075;-65
2022/03/12 04:11:38;;;;;;;14.38;7.40;;;10.30;56.50;;;;;;5163495;22;20455;-65
2022/03/12 04:13:39;;;;;;;13.75;7.20;;;10.30;57.10;;;;;;5164063;22;20008;-65
2022/03/12 04:15:40;;;;;;;13.82;8.18;;;10.30;56.50;;;;;;5164852;22;20447;-65
2022/03/12 04:17:41;;;;;;;12.38;7.15;;;10.30;55.80;;;;;;5164756;22;20444;-65
2022/03/12 04:19:42;;;;;;;12.70;7.57;;;10.20;56.40;;;;;;5165631;22;20015;-65
2022/03/12 04:21:42;;;;;;;11.90;7.18;;;10.20;56.70;;;;;;5164447;22;20352;-65
2022/03/12 04:23:45;;;;;;;11.98;7.68;;;10.20;56.30;;;;;;5165390;22;20062;-65
2022/03/12 04:25:47;;;;;;;11.98;7.32;;;10.20;56.10;;;;;;5164313;22;20012;-65
2022/03/12 04:27:48;;;;;;;14.27;7.15;;;10.20;56.80;;;;;;5164106;22;20008;-65
2022/03/12 04:29:50;;;;;;;16.05;7.38;;;10.20;57.20;;;;;;5162823;23;20007;-65
2022/03/12 04:31:50;;;;;;;11.80;7.10;;;10.20;55.90;;;;;;5163953;22;20012;-66
2022/03/12 04:33:51;;;;;;;14.02;6.97;;;10.20;56.90;;;;;;5164783;22;20062;-65
2022/03/12 04:35:52;;;;;;;12.15;7.43;;;10.20;57.30;;;;;;5163914;22;20013;-66
2022/03/12 04:37:52;;;;;;;11.73;7.40;;;10.20;58.20;;;;;;5164695;22;20018;-66
2022/03/12 04:39:53;;;;;;;14.02;7.28;;;10.10;56.20;;;;;;5164499;22;20375;-66
2022/03/12 04:41:54;;;;;;;11.75;6.78;;;10.10;56.20;;;;;;5163818;22;20008;-66
2022/03/12 04:43:55;;;;;;;10.93;6.95;;;10.10;56.90;;;;;;5164592;22;20008;-65
2022/03/12 04:45:58;;;;;;;13.18;7.53;;;10.10;57.00;;;;;;5163844;22;20309;-65
2022/03/12 04:47:58;;;;;;;13.02;7.13;;;10.10;56.30;;;;;;5164607;22;20062;-65
2022/03/12 04:49:59;;;;;;;13.80;6.60;;;10.00;56.20;;;;;;5165051;22;20429;-65
2022/03/12 04:52:00;;;;;;;14.07;7.07;;;10.10;58.50;;;;;;5164022;22;20016;-65
2022/03/12 04:54:01;;;;;;;12.35;6.60;;;10.00;57.70;;;;;;5164651;22;20010;-65
2022/03/12 04:56:01;;;;;;;12.68;6.90;;;10.00;57.20;;;;;;5163530;22;20332;-65
2022/03/12 04:58:10;;;;;;;10.45;6.57;;;10.00;57.90;;;;;;5164497;22;20083;-65
2022/03/12 05:00:20;;;;;;;10.73;6.72;;;10.00;58.10;;;;;;5162045;22;20006;-67
2022/03/12 05:02:20;;;;;;;13.48;7.03;;;10.00;56.40;;;;;;5162685;22;20043;-65
2022/03/12 05:04:21;;;;;;;10.45;6.30;;;9.90;56.90;;;;;;5164270;22;20009;-65
2022/03/12 05:06:23;;;;;;;10.65;6.80;;;9.90;57.30;;;;;;5162356;22;20000;-65
2022/03/12 05:08:35;;;;;;;12.75;7.03;;;9.90;58.10;;;;;;5164614;22;20007;-65
2022/03/12 05:10:36;;;;;;;11.65;6.75;;;9.90;58.40;;;;;;5162456;22;20043;-65
2022/03/12 05:12:39;;;;;;;12.32;7.43;;;9.90;59.50;;;;;;5164025;22;20348;-65
2022/03/12 05:14:48;;;;;;;15.95;7.18;;;9.90;57.30;;;;;;5163401;22;20428;-66
2022/03/12 05:16:50;;;;;;;12.90;7.13;;;9.90;58.00;;;;;;5163987;22;20333;-65
2022/03/12 05:18:51;;;;;;;12.32;7.03;;;9.80;58.90;;;;;;5162473;23;20420;-65
2022/03/12 05:20:52;;;;;;;11.10;6.70;;;9.80;60.30;;;;;;5163007;22;20020;-65
2022/03/12 05:22:53;;;;;;;12.10;6.85;;;9.80;57.80;;;;;;5164016;22;20091;-65
2022/03/12 05:24:54;;;;;;;12.45;7.53;;;9.80;57.70;;;;;;5163978;22;20008;-65
2022/03/12 05:26:56;;;;;;;12.75;6.80;;;9.80;58.70;;;;;;5164075;22;20015;-65
2022/03/12 05:28:56;;;;;;;11.15;6.80;;;9.80;59.80;;;;;;5162272;23;20131;-65
2022/03/12 05:30:59;;;;;;;13.75;7.88;;;9.80;58.50;;;;;;5162530;22;20439;-65
2022/03/12 05:33:00;;;;;;;12.45;7.90;;;9.80;58.70;;;;;;5163255;22;20498;-65
2022/03/12 05:35:01;;;;;;;10.90;6.70;;;9.70;58.60;;;;;;5160622;22;20039;-66
2022/03/12 05:37:08;;;;;;;11.68;7.28;;;9.70;58.00;;;;;;5162806;22;20005;-66
2022/03/12 05:39:09;;;;;;;9.77;6.78;;;9.60;58.00;;;;;;5162771;22;20058;-65
2022/03/12 05:41:11;;;;;;;11.05;7.05;;;9.70;59.70;;;;;;5162599;22;20008;-65
2022/03/12 05:43:15;;;;;;;11.23;6.77;;;9.70;59.80;;;;;;5164748;22;20019;-65
2022/03/12 05:45:19;;;;;;;11.05;6.68;;;9.70;59.10;;;;;;5151820;22;20008;-65
2022/03/12 05:47:20;;;;;;;11.55;7.05;;;9.70;61.00;;;;;;5150364;22;20004;-65
2022/03/12 05:49:21;;;;;;;16.52;7.63;;;9.60;59.00;;;;;;5164450;22;20059;-65
2022/03/12 05:51:22;;;;;;;11.70;7.05;;;9.60;59.20;;;;;;5164140;22;20479;-65
2022/03/12 05:53:22;;;;;;;11.07;6.75;;;9.50;59.50;;;;;;5164555;22;20012;-65
2022/03/12 05:55:23;;;;;;;10.75;6.95;;;9.50;60.00;;;;;;5164615;22;20297;-65
2022/03/12 05:57:24;;;;;;;14.02;7.25;;;9.50;59.70;;;;;;5164660;22;20011;-65
2022/03/12 05:59:24;;;;;;;11.90;6.55;;;9.50;61.10;;;;;;5164202;22;20011;-65
2022/03/12 06:01:25;;;;;;;11.90;6.80;;;9.60;61.90;;;;;;5146761;23;20730;-65
2022/03/12 06:03:26;;;;;;;10.45;6.72;;;9.50;59.50;;;;;;5163932;22;20018;-65
2022/03/12 06:05:26;;;;;;;12.77;7.25;;;9.50;61.10;;;;;;5163998;22;20015;-65
2022/03/12 06:07:27;;;;;;;12.20;6.90;;;9.60;63.10;;;;;;5164512;22;20004;-65
2022/03/12 06:09:28;;;;;;;13.20;7.40;;;9.50;60.10;;;;;;5164301;22;20084;-65
2022/03/12 06:11:29;;;;;;;10.13;7.13;;;9.50;60.20;;;;;;5163719;22;20388;-65
2022/03/12 06:13:31;;;;;;;11.25;6.97;;;9.40;61.20;;;;;;5164618;22;20428;-65
2022/03/12 06:15:32;;;;;;;10.38;7.05;;;9.50;61.50;;;;;;5163272;22;20012;-65
2022/03/12 06:17:33;;;;;;;12.15;7.45;;;9.50;61.90;;;;;;5163747;22;20460;-65
2022/03/12 06:19:34;;;;;;;12.18;6.93;;;9.50;60.90;;;;;;5164274;22;20036;-65
2022/03/12 06:21:34;;;;;;;11.63;7.05;;;9.50;60.30;;;;;;5163133;22;20012;-66
2022/03/12 06:23:35;;;;;;;12.27;7.40;;;9.40;60.20;;;;;;5163422;22;20066;-65
2022/03/12 06:25:36;;;;;;;11.38;6.53;;;9.50;62.30;;;;;;5162503;22;20063;-65
2022/03/12 06:27:37;;;;;;;11.00;7.25;;;9.40;62.30;;;;;;5163418;22;20024;-65
2022/03/12 06:29:37;;;;;;;13.90;6.78;;;9.40;62.00;;;;;;5161255;23;20066;-65
2022/03/12 06:31:42;;;;;;;13.85;7.50;;;9.30;61.80;;;;;;5162148;22;20020;-65
2022/03/12 06:33:43;;;;;;;13.05;7.50;;;9.30;61.80;;;;;;5162966;22;20000;-65
2022/03/12 06:35:45;;;;;;;11.32;7.45;;;9.30;63.10;;;;;;5164153;22;20382;-65
2022/03/12 06:37:46;;;;;;;13.75;7.78;;;9.40;62.10;;;;;;5164539;22;20012;-65
2022/03/12 06:39:46;;;;;;;11.98;7.55;;;9.30;62.60;;;;;;5161400;23;20004;-65
2022/03/12 06:41:47;;;;;;;11.35;7.55;;;9.30;62.30;;;;;;5160640;23;20381;-65
2022/03/12 06:43:48;;;;;;;12.93;6.78;;;9.40;64.30;;;;;;5164625;22;20008;-65
2022/03/12 06:45:49;;;;;;;10.68;6.53;;;9.40;63.30;;;;;;5163815;22;20058;-65
2022/03/12 06:47:50;;;;;;;16.08;8.48;;;9.50;63.80;;;;;;5163236;23;20392;-65
2022/03/12 06:49:51;;;;;;;13.45;7.20;;;9.50;62.50;;;;;;5165104;22;20092;-65
2022/03/12 06:51:51;;;;;;;12.05;7.80;;;9.50;62.50;;;;;;5164597;22;20395;-65
2022/03/12 06:53:53;;;;;;;11.50;7.20;;;9.50;64.60;;;;;;5165170;22;20411;-65
2022/03/12 06:55:54;;;;;;;15.15;7.53;;;9.60;63.80;;;;;;5164815;22;20369;-65
2022/03/12 06:57:55;;;;;;;14.30;7.70;;;9.50;64.10;;;;;;5164912;22;20008;-65
2022/03/12 06:59:57;;;;;;;12.48;7.72;;;9.50;63.70;;;;;;5165018;22;20004;-65
2022/03/12 07:01:57;;;;;;;14.15;8.05;;;9.60;63.70;;;;;;5161880;23;20034;-65
2022/03/12 07:03:58;;;;;;;15.55;9.07;;;9.70;64.50;;;;;;5163002;23;20008;-65
2022/03/12 07:05:59;;;;;;;16.15;8.60;;;9.80;64.80;;;;;;5164434;22;22012;-65
2022/03/12 07:07:59;;;;;;;16.55;9.20;;;10.00;64.00;;;;;;5165237;22;20023;-65
2022/03/12 07:10:00;;;;;;;15.70;8.88;;;10.10;64.10;;;;;;5165258;22;20039;-65
2022/03/12 07:12:03;;;;;;;17.52;8.80;;;10.20;64.40;;;;;;5163964;22;20009;-65
2022/03/12 07:14:04;;;;;;;15.77;8.32;;;10.30;64.10;;;;;;5164244;22;20004;-66
2022/03/12 07:16:05;;;;;;;13.63;8.60;;;10.40;65.20;;;;;;5137321;23;20080;-65
2022/03/12 07:18:05;;;;;;;15.00;8.13;;;10.40;64.90;;;;;;5165288;22;20004;-66
2022/03/12 07:20:06;;;;;;;15.82;8.38;;;10.50;65.10;;;;;;5164523;22;20000;-67
2022/03/12 07:22:07;;;;;;;13.45;7.95;;;10.50;65.80;;;;;;5164601;22;20473;-65
2022/03/12 07:24:08;;;;;;;15.18;8.55;;;10.60;67.40;;;;;;5164747;22;20000;-66
2022/03/12 07:26:08;;;;;;;11.02;7.38;;;10.70;65.60;;;;;;5164090;22;20459;-65
2022/03/12 07:28:10;;;;;;;11.00;7.13;;;10.90;66.30;;;;;;5165099;22;20004;-65
2022/03/12 07:30:14;;;;;;;11.50;7.85;;;11.10;66.50;;;;;;5163967;22;20019;-66
2022/03/12 07:32:15;;;;;;;14.05;7.20;;;11.30;64.40;;;;;;5164422;22;20317;-65
2022/03/12 07:34:16;;;;;;;11.52;7.18;;;11.40;65.10;;;;;;5164875;22;20003;-65
2022/03/12 07:36:17;;;;;;;16.27;8.27;;;11.50;64.10;;;;;;5164200;22;20402;-65
2022/03/12 07:38:17;;;;;;;17.02;7.82;;;11.40;63.90;;;;;;5165565;22;20436;-65
2022/03/12 07:40:18;;;;;;;12.18;7.85;;;11.50;64.80;;;;;;5160490;22;20087;-65
2022/03/12 07:42:19;;;;;;;8.88;6.22;;;11.50;65.00;;;;;;5164666;22;20348;-65
2022/03/12 07:44:19;;;;;;;15.52;7.90;;;11.60;66.10;;;;;;5164252;22;20012;-65
2022/03/12 07:46:21;;;;;;;14.15;8.23;;;11.60;66.40;;;;;;5163418;22;20035;-65
2022/03/12 07:48:22;;;;;;;11.25;7.53;;;11.60;66.30;;;;;;5159678;23;20008;-65
2022/03/12 07:50:23;;;;;;;10.93;7.57;;;11.60;68.10;;;;;;5164264;22;20016;-65
2022/03/12 07:52:23;;;;;;;15.05;7.43;;;11.60;66.50;;;;;;5165103;22;20095;-65
2022/03/12 07:54:24;;;;;;;13.30;7.82;;;11.60;66.60;;;;;;5165102;22;20019;-64
2022/03/12 07:56:25;;;;;;;10.88;6.90;;;11.60;67.30;;;;;;5164393;22;20008;-65
2022/03/12 07:58:28;;;;;;;11.60;7.63;;;11.60;68.20;;;;;;5164863;22;20009;-65
2022/03/12 08:00:29;;;;;;;12.15;7.85;;;11.50;67.90;;;;;;5161259;23;20024;-65
2022/03/12 08:02:30;;;;;;;14.88;7.70;;;11.60;68.60;;;;;;5165141;22;20070;-65
2022/03/12 08:04:33;;;;;;;11.73;7.97;;;11.70;69.30;;;;;;5188182;22;20079;-65
2022/03/12 08:06:34;;;;;;;19.80;8.65;;;11.60;70.90;;;;;;5163932;22;20012;-65
2022/03/12 08:08:35;;;;;;;18.42;8.02;;;11.70;68.90;;;;;;5162545;23;20456;-65
2022/03/12 08:11:25;;;;;;;11.57;7.93;;;11.70;69.10;;;;;;5163828;22;20035;-65
2022/03/12 08:12:58;;;;;;;11.77;7.63;;;11.80;69.80;;;;;;5164130;22;20012;-65
2022/03/12 08:14:59;;;;;;;12.93;8.02;;;11.90;70.90;;;;;;5165035;22;20028;-65
2022/03/12 08:16:59;;;;;;;14.07;7.82;;;12.10;70.30;;;;;;5164127;22;20012;-65
2022/03/12 08:19:03;;;;;;;14.02;7.88;;;12.20;70.60;;;;;;5164756;22;20063;-65
2022/03/12 08:21:03;;;;;;;12.52;8.32;;;12.30;70.20;;;;;;5163379;22;20356;-65
2022/03/12 08:23:04;;;;;;;12.50;8.07;;;12.50;69.90;;;;;;5164199;22;20027;-66
2022/03/12 08:25:07;;;;;;;10.85;7.15;;;12.60;70.20;;;;;;5164213;22;20015;-67
2022/03/12 08:27:08;;;;;;;12.35;7.75;;;12.70;71.20;;;;;;5164086;22;20440;-65
2022/03/12 08:29:10;;;;;;;12.93;7.80;;;12.70;70.70;;;;;;5164041;22;20027;-65
2022/03/12 08:31:11;;;;;;;12.33;7.23;;;12.80;72.40;;;;;;5162647;22;20015;-65
2022/03/12 08:33:11;;;;;;;10.30;7.53;;;12.90;71.40;;;;;;5163731;22;20063;-65
2022/03/12 08:35:13;;;;;;;13.00;8.07;;;12.90;71.70;;;;;;5161671;22;20420;-65
2022/03/12 08:37:13;;;;;;;12.85;7.18;;;12.90;72.00;;;;;;5162840;22;20141;-65
2022/03/12 08:39:14;;;;;;;11.40;7.43;;;13.00;72.50;;;;;;5164752;22;20332;-66
2022/03/12 08:41:15;;;;;;;12.25;6.88;;;13.00;72.60;;;;;;5163870;22;20008;-65
2022/03/12 08:43:16;;;;;;;9.02;6.30;;;13.00;72.60;;;;;;5161130;23;20004;-64
2022/03/12 08:45:17;;;;;;;9.63;6.65;;;13.10;72.60;;;;;;5163264;22;20079;-64
2022/03/12 08:47:18;;;;;;;11.25;7.25;;;13.10;72.40;;;;;;5164384;22;20008;-64
2022/03/12 08:49:19;;;;;;;13.10;7.70;;;13.20;72.70;;;;;;5164289;22;20016;-64
2022/03/12 08:51:19;;;;;;;10.88;7.00;;;13.30;72.90;;;;;;5162698;22;20020;-64
2022/03/12 08:53:21;;;;;;;11.23;7.43;;;13.30;73.90;;;;;;5164080;22;19996;-64
2022/03/12 08:55:23;;;;;;;8.35;5.93;;;13.40;73.20;;;;;;5162795;22;20418;-64
2022/03/12 08:57:23;;;;;;;9.55;6.20;;;13.40;73.90;;;;;;5164126;22;20372;-65
2022/03/12 08:59:25;;;;;;;10.85;6.82;;;13.60;74.10;;;;;;5161750;23;20018;-65
2022/03/12 09:01:25;;;;;;;10.48;7.35;;;13.60;73.70;;;;;;5163090;22;20453;-65
2022/03/12 09:03:27;;;;;;;9.63;6.55;;;13.50;74.00;;;;;;5163554;22;20019;-65
2022/03/12 09:05:27;;;;;;;11.50;7.43;;;13.60;75.50;;;;;;5161761;22;20031;-65
2022/03/12 09:07:28;;;;;;;9.80;6.55;;;13.50;75.80;;;;;;5163608;22;20012;-65
2022/03/12 09:09:29;;;;;;;16.40;6.88;;;13.60;76.50;;;;;;5163801;22;20012;-65
2022/03/12 09:11:31;;;;;;;9.10;6.35;;;13.60;76.70;;;;;;5161671;22;20020;-65
2022/03/12 09:13:32;;;;;;;9.80;6.60;;;13.60;78.30;;;;;;5163568;22;20008;-65
2022/03/12 09:15:36;;;;;;;8.57;6.43;;;13.60;78.10;;;;;;5162113;22;20142;-65
2022/03/12 09:17:37;;;;;;;17.00;7.10;;;13.50;77.90;;;;;;5162297;22;20012;-65
2022/03/12 09:19:37;;;;;;;9.40;6.47;;;13.50;78.70;;;;;;5163570;22;20018;-65
2022/03/12 09:21:38;;;;;;;10.55;6.65;;;13.60;79.30;;;;;;5162213;22;20016;-65
2022/03/12 09:23:39;;;;;;;9.32;6.03;;;13.50;79.20;;;;;;5163025;22;20054;-66
2022/03/12 09:25:39;;;;;;;14.55;7.20;;;13.60;79.70;;;;;;5160286;22;20131;-64
2022/03/12 09:27:41;;;;;;;11.48;7.03;;;13.70;80.10;;;;;;5162606;22;20460;-65
2022/03/12 09:29:42;;;;;;;10.77;6.65;;;13.70;80.50;;;;;;5163162;22;20145;-65
2022/03/12 09:31:43;;;;;;;10.45;7.60;;;13.70;80.50;;;;;;5161200;22;20020;-66
2022/03/12 09:33:43;;;;;;;10.50;6.90;;;13.60;80.60;;;;;;5164376;22;20443;-66
2022/03/12 09:35:44;;;;;;;11.40;7.22;;;13.70;80.90;;;;;;5161137;22;20012;-66
2022/03/12 09:37:44;;;;;;;9.93;6.85;;;13.70;81.50;;;;;;5164681;22;20014;-65
2022/03/12 09:39:46;;;;;;;11.20;7.00;;;13.70;81.50;;;;;;5163915;22;20007;-66
2022/03/12 09:41:47;;;;;;;11.15;6.85;;;13.70;81.40;;;;;;5160892;22;20047;-65
2022/03/12 09:43:48;;;;;;;8.90;6.35;;;13.70;82.40;;;;;;5165218;22;20047;-66
2022/03/12 09:45:48;;;;;;;11.55;7.15;;;13.70;82.90;;;;;;5163850;22;20012;-65
2022/03/12 09:47:50;;;;;;;10.38;5.75;;;13.70;84.50;;;;;;5164143;22;20035;-65
2022/03/12 09:49:51;;;;;;;7.88;5.15;;;13.70;86.20;;;;;;5165118;22;20008;-65
2022/03/12 09:51:52;;;;;;;7.68;5.25;;;13.80;87.20;;;;;;5164402;22;20394;-65
2022/03/12 09:53:52;;;;;;;4.90;4.15;;;13.80;88.20;;;;;;5164846;22;20008;-65
2022/03/12 09:55:53;;;;;;;6.88;3.60;;;13.80;89.20;;;;;;5161149;23;20004;-65
2022/03/12 09:57:53;;;;;;;6.63;4.32;;;13.90;90.10;;;;;;5164766;22;20432;-65
2022/03/12 09:59:54;;;;;;;8.43;4.40;;;13.90;90.40;;;;;;5164979;22;20392;-65
2022/03/12 10:01:55;;;;;;;6.00;4.25;;;13.90;90.50;;;;;;5163580;22;25213;-65
2022/03/12 10:03:55;;;;;;;6.30;3.83;;;13.90;90.90;;;;;;5164791;22;20016;-65
2022/03/12 10:05:56;;;;;;;6.10;3.63;;;13.90;90.80;;;;;;5163578;22;20012;-65
2022/03/12 10:07:57;;;;;;;8.30;3.90;;;14.00;90.80;;;;;;5166945;22;20012;-66
2022/03/12 10:09:57;;;;;;;6.53;3.67;;;14.00;90.80;;;;;;5137738;23;20067;-65
2022/03/12 10:12:01;;;;;;;6.05;3.80;;;14.00;90.70;;;;;;5164474;22;20012;-65
2022/03/12 10:14:02;;;;;;;7.60;4.25;;;14.10;91.10;;;;;;5165008;22;20008;-65
2022/03/12 10:16:03;;;;;;;5.40;3.63;;;14.10;90.50;;;;;;5164300;22;20008;-65
2022/03/12 10:18:05;;;;;;;7.50;3.35;;;14.20;90.80;;;;;;5164858;22;20004;-65
2022/03/12 10:20:10;;;;;;;9.20;4.07;;;14.30;90.50;;;;;;5162317;23;20090;-65
2022/03/12 10:22:11;;;;;;;6.40;3.60;;;14.30;90.70;;;;;;5165101;23;20062;-66
2022/03/12 10:24:12;;;;;;;4.95;2.97;;;14.40;90.80;;;;;;5166445;22;20059;-65
2022/03/12 10:26:13;;;;;;;10.20;4.07;;;14.50;90.70;;;;;;5165134;22;20049;-66
2022/03/12 10:28:14;;;;;;;21.90;4.35;;;14.50;89.50;;;;;;5167841;22;20014;-65